Hazardville, Connecticut
Current Conditions -  °F | °C
As of 10:51 AM on Thursday 27 Nov 2014 (Local Time) from KBDL Reporting Station
Broken Clouds Broken Clouds  
Wind Chill: 31°   Ceiling: 8500
Heat Index: 36°   Visibility: 10mi
Dew Point: 28°   Wind: 6mph
Humidity: 73%   Direction: 340°NNW
Pressure: 29.97"   Gusts: NA
Location:  41.9843°N, 72.5534°W
Report Text: KBDL 271551Z 34005KT 10SM FEW020 BKN085 BKN200 02/M02 A2997 RMK AO2 SLP149 T00221022
Loading
Personal Weather Stations






























Interactive Weather Map New forecast layout! Learn more

10-Day Weather Forecast

Advertisements
Track Severe Weather on mobile